Time;durP1;ratioP1;P1;durP2;ratioP2;P2;SDS_P1;SDS_P2;PMS_P1;PMS_P2;Temp;Humidity;BMP_temperature;BMP_pressure;BME280_temperature;BME280_humidity;BME280_pressure;Samples;Min_cycle;Max_cycle;Signal;HPM_P1;HPM_P2
2023/08/27 00:01:04;;;;;;;1.67;1.57;;;23.90;99.90;;;;;;5037099;28;20459;-60
2023/08/27 00:03:31;;;;;;;1.70;1.60;;;23.90;99.90;;;;;;5035849;28;20467;-65
2023/08/27 00:05:57;;;;;;;1.80;1.20;;;23.90;99.90;;;;;;5032723;28;20474;-56
2023/08/27 00:08:25;;;;;;;1.60;1.20;;;23.90;99.90;;;;;;5038466;28;20468;-63
2023/08/27 00:10:57;;;;;;;1.50;1.40;;;23.90;99.90;;;;;;5038304;28;20487;-57
2023/08/27 00:13:24;;;;;;;2.60;1.70;;;23.90;99.90;;;;;;5035168;28;20468;-56
2023/08/27 00:15:51;;;;;;;1.40;1.10;;;23.90;99.90;;;;;;5034731;28;20476;-56
2023/08/27 00:18:18;;;;;;;1.60;1.50;;;23.90;99.90;;;;;;5038798;28;20891;-57
2023/08/27 00:20:47;;;;;;;2.13;1.53;;;23.90;99.90;;;;;;5035042;28;20798;-56
2023/08/27 00:23:13;;;;;;;1.87;1.77;;;23.90;99.90;;;;;;5036212;28;20464;-59
2023/08/27 00:25:43;;;;;;;1.90;1.67;;;23.90;99.90;;;;;;5036898;28;20461;-54
2023/08/27 00:28:12;;;;;;;1.67;1.50;;;23.90;99.90;;;;;;5037318;28;20970;-59
2023/08/27 00:30:39;;;;;;;2.63;1.57;;;23.90;99.90;;;;;;5028288;28;20482;-62
2023/08/27 00:33:06;;;;;;;1.40;1.13;;;23.90;99.90;;;;;;5034337;28;20477;-62
2023/08/27 00:35:32;;;;;;;2.90;2.13;;;23.90;99.90;;;;;;5034304;28;20493;-53
2023/08/27 00:37:59;;;;;;;2.63;1.57;;;23.90;99.90;;;;;;5036811;28;20489;-53
2023/08/27 00:40:28;;;;;;;1.37;1.27;;;23.80;99.90;;;;;;5037439;28;20475;-59
2023/08/27 00:42:56;;;;;;;1.63;1.30;;;23.80;99.90;;;;;;5036148;28;20540;-64
2023/08/27 00:45:23;;;;;;;1.40;1.30;;;23.80;99.90;;;;;;5036020;28;20473;-59
2023/08/27 00:47:50;;;;;;;1.40;1.30;;;23.80;99.90;;;;;;5037928;28;20476;-64
2023/08/27 00:50:17;;;;;;;1.50;1.40;;;23.80;99.90;;;;;;5038913;28;20464;-59
2023/08/27 00:52:44;;;;;;;1.60;1.50;;;23.80;99.90;;;;;;5036800;28;20473;-62
2023/08/27 00:55:10;;;;;;;1.70;1.50;;;23.80;99.90;;;;;;5039888;28;20469;-63
2023/08/27 00:57:39;;;;;;;2.00;1.47;;;23.80;99.90;;;;;;5041754;28;20478;-56
2023/08/27 01:00:09;;;;;;;1.60;1.50;;;23.80;99.90;;;;;;5036585;28;20500;-65
2023/08/27 01:02:37;;;;;;;2.07;1.70;;;23.80;99.90;;;;;;5038552;28;20920;-57
2023/08/27 01:05:05;;;;;;;2.07;1.37;;;23.80;99.90;;;;;;5038959;28;20471;-57
2023/08/27 01:07:37;;;;;;;1.70;1.30;;;23.80;99.90;;;;;;5039952;28;21017;-57
2023/08/27 01:10:11;;;;;;;1.50;1.37;;;23.80;99.90;;;;;;5042467;28;20583;-58
2023/08/27 01:12:46;;;;;;;4.17;1.40;;;23.80;99.90;;;;;;5038293;28;20551;-61
2023/08/27 01:15:16;;;;;;;1.47;1.23;;;23.80;99.90;;;;;;5037841;28;20457;-58
2023/08/27 01:17:44;;;;;;;1.40;1.23;;;23.80;99.90;;;;;;5039013;28;20467;-53
2023/08/27 01:20:12;;;;;;;1.47;1.37;;;23.80;99.90;;;;;;5040331;28;20465;-58
2023/08/27 01:22:40;;;;;;;1.90;1.80;;;23.80;99.90;;;;;;5038436;28;20517;-61
2023/08/27 01:25:08;;;;;;;1.47;1.33;;;23.80;99.90;;;;;;5039122;28;20460;-56
2023/08/27 01:27:44;;;;;;;1.53;1.43;;;23.80;99.90;;;;;;5040882;28;20460;-53
2023/08/27 01:30:17;;;;;;;1.30;1.20;;;23.80;99.90;;;;;;5038276;28;20461;-57
2023/08/27 01:32:48;;;;;;;1.70;1.30;;;23.80;99.90;;;;;;5039081;28;20474;-59
2023/08/27 01:35:16;;;;;;;1.23;1.00;;;23.80;99.90;;;;;;5038960;28;20462;-58
2023/08/27 01:37:45;;;;;;;1.43;1.33;;;23.80;99.90;;;;;;5040954;28;20471;-60
2023/08/27 01:40:12;;;;;;;1.57;1.47;;;23.80;99.90;;;;;;5041179;28;20477;-53
2023/08/27 01:42:39;;;;;;;1.40;1.30;;;23.80;99.90;;;;;;5035352;28;20501;-55
2023/08/27 01:45:07;;;;;;;1.40;1.30;;;23.80;99.90;;;;;;5037899;28;20857;-61
2023/08/27 01:47:34;;;;;;;1.70;1.33;;;23.80;99.90;;;;;;5040170;28;20883;-59
2023/08/27 01:50:00;;;;;;;1.50;1.40;;;23.80;99.90;;;;;;5039477;28;20463;-61
2023/08/27 01:52:27;;;;;;;1.50;1.40;;;23.80;99.90;;;;;;5038315;28;20454;-57
2023/08/27 01:54:55;;;;;;;1.50;1.40;;;23.80;99.90;;;;;;5037927;28;20477;-56
2023/08/27 01:57:22;;;;;;;1.40;1.30;;;23.80;99.90;;;;;;5040861;28;20511;-61
2023/08/27 01:59:49;;;;;;;1.70;1.60;;;23.80;99.90;;;;;;5040209;28;20470;-57
2023/08/27 02:02:15;;;;;;;1.37;1.10;;;23.80;99.90;;;;;;5038279;28;20508;-54
2023/08/27 02:04:42;;;;;;;1.33;1.23;;;23.80;99.90;;;;;;5038774;28;20498;-61
2023/08/27 02:07:09;;;;;;;2.27;1.40;;;23.70;99.90;;;;;;5040392;28;20461;-59
2023/08/27 02:09:36;;;;;;;1.53;1.43;;;23.70;99.90;;;;;;5040832;28;20566;-56
2023/08/27 02:12:06;;;;;;;1.30;1.20;;;23.70;99.90;;;;;;5038819;28;20463;-64
2023/08/27 02:14:32;;;;;;;1.37;1.20;;;23.80;99.90;;;;;;5034095;28;20538;-62
2023/08/27 02:16:59;;;;;;;1.77;1.40;;;23.70;99.90;;;;;;5036983;28;20825;-60
2023/08/27 02:19:26;;;;;;;1.93;1.20;;;23.70;99.90;;;;;;5039321;28;20461;-57
2023/08/27 02:21:52;;;;;;;1.83;1.73;;;23.80;99.90;;;;;;5036364;28;20462;-60
2023/08/27 02:24:19;;;;;;;1.53;1.43;;;23.70;99.90;;;;;;5039624;28;20458;-59
2023/08/27 02:26:46;;;;;;;1.33;1.23;;;23.70;99.90;;;;;;5039873;28;20469;-60
2023/08/27 02:29:14;;;;;;;1.63;1.40;;;23.70;99.90;;;;;;5039488;28;20470;-58
2023/08/27 02:31:40;;;;;;;1.60;1.47;;;23.70;99.90;;;;;;5036163;28;20471;-60
2023/08/27 02:34:07;;;;;;;1.50;1.20;;;23.70;99.90;;;;;;5040179;28;20465;-67
2023/08/27 02:36:34;;;;;;;1.87;1.60;;;23.70;99.90;;;;;;5038847;28;20449;-55
2023/08/27 02:39:01;;;;;;;1.63;1.53;;;23.70;99.90;;;;;;5040364;28;20498;-59
2023/08/27 02:41:27;;;;;;;1.30;1.20;;;23.70;99.90;;;;;;5038079;28;20471;-54
2023/08/27 02:43:54;;;;;;;1.70;1.40;;;23.70;99.90;;;;;;5038729;28;20466;-57
2023/08/27 02:46:22;;;;;;;1.30;1.10;;;23.70;99.90;;;;;;5037824;28;20464;-58
2023/08/27 02:48:49;;;;;;;1.27;1.10;;;23.70;99.90;;;;;;5039342;28;20493;-55
2023/08/27 02:51:16;;;;;;;1.50;1.40;;;23.70;99.90;;;;;;5034035;28;20712;-55
2023/08/27 02:53:42;;;;;;;1.50;1.30;;;23.70;99.90;;;;;;5038568;28;20472;-55
2023/08/27 02:56:09;;;;;;;1.57;1.47;;;23.70;99.90;;;;;;5036716;28;20467;-62
2023/08/27 02:58:36;;;;;;;1.90;1.80;;;23.70;99.90;;;;;;5039825;28;20480;-59
2023/08/27 03:01:03;;;;;;;1.30;1.20;;;23.70;99.90;;;;;;5033263;28;20468;-66
2023/08/27 03:03:31;;;;;;;1.33;1.23;;;23.70;99.90;;;;;;5040086;28;20456;-60
2023/08/27 03:05:58;;;;;;;3.10;1.73;;;23.60;99.90;;;;;;5035353;28;20459;-56
2023/08/27 03:08:25;;;;;;;1.80;1.50;;;23.70;99.90;;;;;;5040402;28;20463;-55
2023/08/27 03:10:51;;;;;;;1.40;1.30;;;23.70;99.90;;;;;;5035968;28;20464;-60
2023/08/27 03:13:18;;;;;;;1.50;1.40;;;23.70;99.90;;;;;;5040306;28;21029;-61
2023/08/27 03:15:45;;;;;;;1.33;1.23;;;23.70;99.90;;;;;;5035222;28;20826;-55
2023/08/27 03:18:11;;;;;;;1.60;1.50;;;23.70;99.90;;;;;;5037364;28;20476;-57
2023/08/27 03:20:39;;;;;;;1.33;1.23;;;23.70;99.90;;;;;;5035831;28;20466;-57
2023/08/27 03:23:06;;;;;;;1.50;1.40;;;23.60;99.90;;;;;;5039067;28;20454;-55
2023/08/27 03:25:33;;;;;;;1.87;1.43;;;23.70;99.90;;;;;;5036469;28;20459;-61
2023/08/27 03:28:00;;;;;;;1.30;1.20;;;23.60;99.90;;;;;;5037555;28;20479;-56
2023/08/27 03:30:26;;;;;;;1.30;1.20;;;23.60;99.90;;;;;;5036432;28;20467;-58
2023/08/27 03:32:53;;;;;;;1.53;1.37;;;23.60;99.90;;;;;;5036375;28;20537;-59
2023/08/27 03:35:20;;;;;;;1.70;1.40;;;23.60;99.90;;;;;;5035983;28;20481;-61
2023/08/27 03:37:48;;;;;;;1.60;1.50;;;23.60;99.90;;;;;;5037676;28;20508;-63
2023/08/27 03:40:15;;;;;;;1.30;1.20;;;23.60;99.90;;;;;;5033390;28;20462;-58
2023/08/27 03:42:41;;;;;;;1.50;1.40;;;23.60;99.90;;;;;;5037241;28;20469;-61
2023/08/27 03:45:09;;;;;;;1.53;1.40;;;23.60;99.90;;;;;;5035368;28;20468;-63
2023/08/27 03:47:36;;;;;;;1.30;1.20;;;23.60;99.90;;;;;;5036161;28;20966;-54
2023/08/27 03:50:04;;;;;;;1.50;1.40;;;23.60;99.90;;;;;;5033899;28;20844;-60
2023/08/27 03:52:34;;;;;;;1.67;1.57;;;23.60;99.90;;;;;;5036623;28;20463;-52
2023/08/27 03:55:02;;;;;;;1.43;1.33;;;23.60;99.90;;;;;;5033252;28;20467;-57
2023/08/27 03:57:29;;;;;;;1.20;1.07;;;23.60;99.90;;;;;;5038137;28;20462;-60
2023/08/27 03:59:55;;;;;;;1.30;1.20;;;23.60;99.90;;;;;;5034596;28;20937;-60
2023/08/27 04:02:22;;;;;;;1.60;1.50;;;23.60;99.90;;;;;;5032360;28;20467;-58
2023/08/27 04:04:50;;;;;;;1.30;1.20;;;23.60;99.90;;;;;;5033624;28;20466;-58
2023/08/27 04:07:16;;;;;;;1.30;1.20;;;23.60;99.90;;;;;;5034681;28;20469;-57
2023/08/27 04:09:43;;;;;;;1.70;1.60;;;23.60;99.90;;;;;;5035531;28;21040;-59
2023/08/27 04:12:11;;;;;;;1.33;1.20;;;23.60;99.90;;;;;;5038321;28;20465;-58
2023/08/27 04:14:38;;;;;;;1.80;1.47;;;23.60;99.90;;;;;;5037061;28;21263;-56
2023/08/27 04:17:04;;;;;;;1.60;1.50;;;23.60;99.90;;;;;;5037934;28;20480;-54
2023/08/27 04:19:31;;;;;;;1.40;1.30;;;23.60;99.90;;;;;;5036970;28;20487;-58
2023/08/27 04:21:58;;;;;;;1.10;1.00;;;23.60;99.90;;;;;;5036812;28;21049;-65
2023/08/27 04:24:25;;;;;;;1.43;1.33;;;23.60;99.90;;;;;;5039538;28;20851;-55
2023/08/27 04:26:51;;;;;;;1.60;1.50;;;23.60;99.90;;;;;;5042382;28;20464;-58
2023/08/27 04:29:19;;;;;;;1.40;1.30;;;23.60;99.90;;;;;;5041587;28;20492;-60
2023/08/27 04:31:46;;;;;;;1.40;1.30;;;23.60;99.90;;;;;;5039130;28;20458;-58
2023/08/27 04:34:13;;;;;;;1.50;1.40;;;23.60;99.90;;;;;;5042555;28;20974;-55
2023/08/27 04:36:39;;;;;;;1.20;1.10;;;23.60;99.90;;;;;;5038808;28;20462;-54
2023/08/27 04:39:07;;;;;;;2.17;2.00;;;23.60;99.90;;;;;;5042061;28;20478;-62
2023/08/27 04:41:34;;;;;;;1.40;1.23;;;23.60;99.90;;;;;;5044052;28;20462;-59
2023/08/27 04:44:01;;;;;;;1.80;1.30;;;23.60;99.90;;;;;;5043572;28;20454;-59
2023/08/27 04:46:29;;;;;;;1.70;1.60;;;23.50;99.90;;;;;;5039190;28;20458;-63
2023/08/27 04:48:56;;;;;;;1.10;1.00;;;23.50;99.90;;;;;;5035806;28;20485;-56
2023/08/27 04:51:22;;;;;;;1.43;1.33;;;23.50;99.90;;;;;;5040100;28;20466;-57
2023/08/27 04:53:49;;;;;;;1.77;1.67;;;23.50;99.90;;;;;;5041194;28;20460;-56
2023/08/27 04:56:16;;;;;;;1.60;1.50;;;23.50;99.90;;;;;;5040913;28;20817;-61
2023/08/27 04:58:42;;;;;;;1.80;1.50;;;23.50;99.90;;;;;;5039895;28;20907;-61
2023/08/27 05:01:10;;;;;;;1.67;1.57;;;23.50;99.90;;;;;;5040804;28;20475;-53
2023/08/27 05:03:38;;;;;;;1.27;1.13;;;23.50;99.90;;;;;;5042905;28;20828;-56
2023/08/27 05:06:05;;;;;;;1.60;1.50;;;23.50;99.90;;;;;;5038796;28;20449;-51
2023/08/27 05:08:32;;;;;;;1.40;1.30;;;23.50;99.90;;;;;;5041779;28;20466;-61
2023/08/27 05:10:59;;;;;;;1.60;1.50;;;23.50;99.90;;;;;;5034076;28;20568;-57
2023/08/27 05:13:26;;;;;;;1.33;1.23;;;23.50;99.90;;;;;;5041920;28;20463;-61
2023/08/27 05:15:53;;;;;;;2.13;1.53;;;23.50;99.90;;;;;;5042459;28;20469;-65
2023/08/27 05:18:19;;;;;;;1.37;1.27;;;23.50;99.90;;;;;;5043731;28;20875;-60
2023/08/27 05:20:47;;;;;;;1.20;1.10;;;23.50;99.90;;;;;;5039256;28;20571;-58
2023/08/27 05:23:14;;;;;;;1.40;1.30;;;23.50;99.90;;;;;;5043141;28;20443;-63
2023/08/27 05:25:41;;;;;;;1.57;1.47;;;23.50;99.90;;;;;;5040372;28;20464;-68
2023/08/27 05:28:07;;;;;;;1.60;1.50;;;23.50;99.90;;;;;;5043038;28;20461;-54
2023/08/27 05:30:34;;;;;;;1.50;1.20;;;23.50;99.90;;;;;;5039843;28;20489;-63
2023/08/27 05:33:02;;;;;;;1.90;1.80;;;23.50;99.90;;;;;;5042242;28;20796;-58
2023/08/27 05:35:29;;;;;;;1.37;1.27;;;23.50;99.90;;;;;;5037890;28;20950;-55
2023/08/27 05:37:57;;;;;;;1.77;1.67;;;23.50;99.90;;;;;;5039821;28;20465;-52
2023/08/27 05:40:23;;;;;;;1.33;1.23;;;23.50;99.90;;;;;;5039894;28;20818;-64
2023/08/27 05:42:50;;;;;;;1.43;1.17;;;23.50;99.90;;;;;;5042009;28;20471;-60
2023/08/27 05:45:17;;;;;;;1.40;1.30;;;23.50;99.90;;;;;;5041603;28;20486;-58
2023/08/27 05:47:43;;;;;;;1.57;1.47;;;23.50;99.90;;;;;;5041189;28;20472;-54
2023/08/27 05:50:10;;;;;;;1.20;1.10;;;23.50;99.90;;;;;;5041633;28;20465;-64
2023/08/27 05:52:37;;;;;;;1.43;1.27;;;23.50;99.90;;;;;;5039798;28;20491;-60
2023/08/27 05:55:06;;;;;;;1.43;1.33;;;23.50;99.90;;;;;;5041480;28;20474;-65
2023/08/27 05:57:32;;;;;;;1.60;1.40;;;23.50;99.90;;;;;;5041721;28;20481;-57
2023/08/27 05:59:59;;;;;;;1.30;1.20;;;23.50;99.90;;;;;;5040580;28;20485;-54
2023/08/27 06:02:26;;;;;;;1.40;1.30;;;23.50;99.90;;;;;;5031270;28;20927;-57
2023/08/27 06:04:53;;;;;;;1.20;1.10;;;23.50;99.90;;;;;;5037670;28;20467;-62
2023/08/27 06:07:19;;;;;;;1.83;1.20;;;23.50;99.90;;;;;;5040680;28;20462;-58
2023/08/27 06:09:46;;;;;;;1.60;1.50;;;23.50;99.90;;;;;;5042184;28;20911;-61
2023/08/27 06:12:14;;;;;;;1.50;1.40;;;23.50;99.90;;;;;;5040494;28;20467;-60
2023/08/27 06:14:41;;;;;;;1.50;1.10;;;23.50;99.90;;;;;;5030064;28;20457;-68
2023/08/27 06:17:07;;;;;;;1.77;1.33;;;23.40;99.90;;;;;;5039967;28;20471;-64
2023/08/27 06:19:34;;;;;;;1.70;1.60;;;23.40;99.90;;;;;;5040043;28;20834;-58
2023/08/27 06:22:01;;;;;;;1.27;1.17;;;23.40;99.90;;;;;;5038478;28;20458;-62
2023/08/27 06:24:28;;;;;;;1.80;1.50;;;23.40;99.90;;;;;;5039572;28;20464;-57
2023/08/27 06:26:56;;;;;;;1.57;1.23;;;23.40;99.90;;;;;;5037236;28;20466;-59
2023/08/27 06:29:24;;;;;;;1.73;1.63;;;23.40;99.90;;;;;;5034456;28;20481;-65
2023/08/27 06:31:51;;;;;;;1.50;1.40;;;23.40;99.90;;;;;;5034471;28;20468;-58
2023/08/27 06:34:19;;;;;;;1.70;1.43;;;23.40;99.90;;;;;;5039751;28;20462;-54
2023/08/27 06:36:47;;;;;;;1.40;1.30;;;23.40;99.90;;;;;;5036314;28;20469;-59
2023/08/27 06:39:14;;;;;;;1.40;1.30;;;23.40;99.90;;;;;;5042531;28;20573;-60
2023/08/27 06:41:41;;;;;;;1.53;1.43;;;23.40;99.90;;;;;;5040367;28;20467;-59
2023/08/27 06:44:07;;;;;;;1.60;1.50;;;23.40;99.90;;;;;;5040233;28;20442;-60
2023/08/27 06:46:36;;;;;;;1.87;1.40;;;23.40;99.90;;;;;;5033850;28;20459;-58
2023/08/27 06:49:02;;;;;;;1.40;1.30;;;23.40;99.90;;;;;;5036426;28;20991;-55
2023/08/27 06:51:29;;;;;;;1.60;1.50;;;23.40;99.90;;;;;;5037840;28;20464;-62
2023/08/27 06:53:56;;;;;;;1.40;1.20;;;23.40;99.90;;;;;;5039666;28;20817;-58
2023/08/27 06:56:22;;;;;;;1.50;1.40;;;23.40;99.90;;;;;;5037562;28;20466;-57
2023/08/27 06:58:49;;;;;;;1.40;1.30;;;23.40;99.90;;;;;;5036610;28;20867;-62
2023/08/27 07:01:16;;;;;;;1.47;1.33;;;23.40;99.90;;;;;;5039229;28;20893;-53
2023/08/27 07:03:44;;;;;;;1.40;1.20;;;23.40;99.90;;;;;;5036968;28;20823;-55
2023/08/27 07:06:11;;;;;;;1.67;1.47;;;23.40;99.90;;;;;;5038556;28;20461;-61
2023/08/27 07:08:37;;;;;;;1.50;1.40;;;23.40;99.90;;;;;;5039053;28;20940;-58
2023/08/27 07:11:04;;;;;;;1.30;1.20;;;23.40;99.90;;;;;;5038237;28;20457;-54
2023/08/27 07:13:31;;;;;;;1.87;1.57;;;23.40;99.90;;;;;;5038584;28;20458;-58
2023/08/27 07:15:57;;;;;;;1.80;1.30;;;23.40;99.90;;;;;;5037724;28;20457;-60
2023/08/27 07:18:24;;;;;;;1.70;1.40;;;23.40;99.90;;;;;;5028685;28;20546;-62
2023/08/27 07:20:53;;;;;;;1.20;1.00;;;23.40;99.90;;;;;;5037496;28;21203;-57
2023/08/27 07:23:19;;;;;;;1.57;1.47;;;23.40;99.90;;;;;;5040189;28;20456;-59
2023/08/27 07:25:46;;;;;;;1.30;1.20;;;23.40;99.90;;;;;;5034251;28;20462;-55
2023/08/27 07:28:13;;;;;;;1.57;1.47;;;23.40;99.90;;;;;;5040543;28;20465;-53
2023/08/27 07:30:40;;;;;;;4.40;1.37;;;23.40;99.90;;;;;;5035689;28;20461;-60
2023/08/27 07:33:07;;;;;;;1.80;1.70;;;23.40;99.90;;;;;;5039839;28;20465;-63
2023/08/27 07:35:33;;;;;;;1.70;1.43;;;23.40;99.90;;;;;;5036885;28;20895;-66
2023/08/27 07:38:01;;;;;;;1.30;1.20;;;23.40;99.90;;;;;;5030445;28;20490;-53
2023/08/27 07:40:28;;;;;;;1.40;1.20;;;23.40;99.90;;;;;;5039753;28;20477;-56
2023/08/27 07:42:56;;;;;;;1.40;1.20;;;23.40;99.90;;;;;;5039837;28;20459;-54
2023/08/27 07:45:23;;;;;;;1.50;1.40;;;23.40;99.90;;;;;;5035817;28;20472;-55
2023/08/27 07:47:49;;;;;;;1.60;1.50;;;23.40;99.90;;;;;;5038030;28;21011;-58
2023/08/27 07:50:16;;;;;;;1.33;1.23;;;23.40;99.90;;;;;;5035671;28;20467;-63
2023/08/27 07:52:43;;;;;;;1.40;1.30;;;23.40;99.90;;;;;;5040498;28;20817;-59
2023/08/27 07:55:11;;;;;;;7.10;1.30;;;23.40;99.90;;;;;;5037051;28;20466;-58
2023/08/27 07:57:38;;;;;;;1.90;1.70;;;23.40;99.90;;;;;;5038191;28;20549;-60
2023/08/27 08:00:07;;;;;;;3.50;1.97;;;23.40;99.90;;;;;;5036495;28;20478;-57
2023/08/27 08:02:34;;;;;;;2.80;2.20;;;23.30;99.90;;;;;;5037603;28;20598;-57
2023/08/27 08:05:01;;;;;;;2.37;2.17;;;23.30;99.90;;;;;;5036231;28;20467;-54
2023/08/27 08:07:28;;;;;;;7.80;2.40;;;23.30;99.90;;;;;;5030408;28;20458;-58
2023/08/27 08:09:54;;;;;;;2.40;1.70;;;23.30;99.90;;;;;;5036308;28;20477;-56
2023/08/27 08:12:22;;;;;;;2.30;1.70;;;23.30;99.90;;;;;;5038401;28;20454;-55
2023/08/27 08:14:49;;;;;;;2.13;1.93;;;23.30;99.90;;;;;;5034466;28;20467;-56
2023/08/27 08:17:16;;;;;;;1.87;1.40;;;23.30;99.90;;;;;;5037988;28;20968;-57
2023/08/27 08:19:43;;;;;;;2.13;1.90;;;23.30;99.90;;;;;;5037037;28;20491;-59
2023/08/27 08:25:33;;;;;;;2.00;1.80;;;23.30;99.90;;;;;;5028183;28;20500;-66
2023/08/27 08:28:01;;;;;;;2.07;1.87;;;23.30;99.90;;;;;;5028806;28;20954;-60
2023/08/27 08:30:28;;;;;;;1.63;1.53;;;23.30;99.90;;;;;;5025849;28;20461;-62
2023/08/27 08:32:54;;;;;;;2.30;1.60;;;23.30;99.90;;;;;;5029614;28;20462;-64
2023/08/27 08:35:21;;;;;;;1.40;1.30;;;23.30;99.90;;;;;;5028023;28;20501;-63
2023/08/27 08:37:48;;;;;;;1.30;1.10;;;23.30;99.90;;;;;;5028469;28;20462;-64
2023/08/27 08:40:18;;;;;;;2.30;2.10;;;23.30;99.90;;;;;;5030125;28;20500;-62
2023/08/27 08:42:56;;;;;;;1.83;1.63;;;23.30;99.90;;;;;;5018920;28;20828;-58
2023/08/27 08:45:34;;;;;;;1.60;1.50;;;23.30;99.90;;;;;;5029812;28;20482;-59
2023/08/27 08:48:02;;;;;;;2.20;1.67;;;23.30;99.90;;;;;;5031155;28;20462;-58
2023/08/27 08:50:32;;;;;;;2.43;1.60;;;23.30;99.90;;;;;;5026957;28;21760;-54
2023/08/27 08:53:06;;;;;;;3.20;2.30;;;23.30;99.90;;;;;;5025187;28;20464;-58
2023/08/27 08:55:35;;;;;;;2.10;1.63;;;23.30;99.90;;;;;;5030218;28;20912;-60
2023/08/27 08:58:09;;;;;;;3.23;1.97;;;23.30;99.90;;;;;;5039762;28;20488;-64
2023/08/27 09:00:38;;;;;;;1.70;1.60;;;23.30;99.90;;;;;;5038642;28;20477;-56
2023/08/27 09:03:05;;;;;;;5.10;1.57;;;23.30;99.90;;;;;;5036932;28;20458;-59
2023/08/27 09:05:34;;;;;;;1.80;1.60;;;23.30;99.90;;;;;;5028561;28;20466;-55
2023/08/27 09:08:01;;;;;;;2.40;1.67;;;23.30;99.90;;;;;;5028342;28;20504;-59
2023/08/27 09:10:28;;;;;;;6.10;1.90;;;23.30;99.90;;;;;;5030350;28;20972;-57
2023/08/27 09:12:56;;;;;;;3.87;1.97;;;23.30;99.90;;;;;;5032836;28;20450;-58
2023/08/27 09:15:23;;;;;;;5.93;2.13;;;23.30;99.90;;;;;;5032276;28;21080;-56
2023/08/27 09:17:51;;;;;;;5.00;3.43;;;23.30;99.90;;;;;;5026594;28;20916;-59
2023/08/27 09:20:19;;;;;;;2.67;2.00;;;23.30;99.90;;;;;;5030395;28;20480;-62
2023/08/27 09:22:46;;;;;;;3.53;1.63;;;23.30;99.90;;;;;;5031292;28;20470;-64
2023/08/27 09:25:13;;;;;;;6.10;2.10;;;23.30;99.90;;;;;;5033813;28;20454;-62
2023/08/27 09:27:40;;;;;;;3.73;1.67;;;23.30;99.90;;;;;;5039934;28;20502;-60
2023/08/27 09:30:08;;;;;;;3.37;2.10;;;23.30;99.90;;;;;;5040033;28;20472;-59
2023/08/27 09:32:35;;;;;;;4.60;1.90;;;23.30;99.90;;;;;;5040170;28;20890;-61
2023/08/27 09:35:05;;;;;;;4.33;2.13;;;23.30;99.90;;;;;;5039714;28;20460;-61
2023/08/27 09:37:38;;;;;;;4.50;1.70;;;23.30;99.90;;;;;;5040631;28;20837;-58
2023/08/27 09:40:07;;;;;;;6.67;2.43;;;23.30;99.90;;;;;;5042567;28;20471;-57
2023/08/27 09:42:33;;;;;;;8.37;1.93;;;23.30;99.90;;;;;;5037123;28;20885;-52
2023/08/27 09:45:00;;;;;;;5.43;2.43;;;23.30;99.90;;;;;;5039925;28;20463;-56
2023/08/27 09:47:31;;;;;;;2.93;2.20;;;23.30;99.90;;;;;;5041370;28;20466;-57
2023/08/27 09:49:58;;;;;;;2.00;1.90;;;23.30;99.90;;;;;;5041114;28;20806;-53
2023/08/27 09:52:26;;;;;;;2.30;1.87;;;23.30;99.90;;;;;;5038112;28;20461;-54
2023/08/27 09:54:53;;;;;;;3.70;2.27;;;23.30;99.90;;;;;;5038851;28;20472;-56
2023/08/27 09:57:21;;;;;;;2.77;2.10;;;23.30;99.90;;;;;;5039181;28;20469;-54
2023/08/27 09:59:48;;;;;;;1.90;1.80;;;23.30;99.90;;;;;;5037642;28;20513;-61
2023/08/27 10:02:15;;;;;;;3.30;2.73;;;23.30;99.90;;;;;;5032711;28;20762;-58
2023/08/27 10:04:50;;;;;;;3.60;2.90;;;23.30;99.90;;;;;;5027849;28;20963;-64
2023/08/27 10:07:17;;;;;;;2.57;1.90;;;23.30;99.90;;;;;;5033520;28;21030;-58
2023/08/27 10:09:50;;;;;;;2.00;1.50;;;23.30;99.90;;;;;;5032505;28;20462;-54
2023/08/27 10:12:17;;;;;;;2.30;2.10;;;23.30;99.90;;;;;;5030672;28;20601;-56
2023/08/27 10:14:45;;;;;;;2.73;2.53;;;23.30;99.90;;;;;;5030359;28;20968;-61
2023/08/27 10:17:12;;;;;;;2.47;2.07;;;23.30;99.90;;;;;;5030094;28;20462;-54
2023/08/27 10:19:38;;;;;;;2.50;2.30;;;23.30;99.90;;;;;;5032495;28;20462;-52
2023/08/27 10:22:06;;;;;;;2.80;2.10;;;23.30;99.90;;;;;;5029663;28;20471;-60
2023/08/27 10:24:33;;;;;;;3.90;2.40;;;23.30;99.90;;;;;;5028656;28;20454;-58
2023/08/27 10:27:03;;;;;;;3.53;2.70;;;23.30;99.90;;;;;;5035053;28;20504;-59
2023/08/27 10:29:30;;;;;;;2.63;2.43;;;23.30;99.90;;;;;;5036581;28;20460;-66
2023/08/27 10:31:58;;;;;;;3.90;2.90;;;23.30;99.90;;;;;;5032605;28;20851;-63
2023/08/27 10:34:28;;;;;;;3.20;2.90;;;23.30;99.90;;;;;;5029922;28;20459;-64
2023/08/27 10:36:59;;;;;;;2.70;2.50;;;23.30;99.90;;;;;;5036724;28;20465;-58
2023/08/27 10:39:30;;;;;;;4.37;3.20;;;23.30;99.90;;;;;;5038395;28;20977;-66
2023/08/27 10:41:56;;;;;;;2.90;2.57;;;23.30;99.90;;;;;;5038383;28;20492;-57
2023/08/27 10:44:24;;;;;;;3.83;2.57;;;23.30;99.90;;;;;;5036709;28;20470;-65
2023/08/27 10:47:12;;;;;;;3.20;2.70;;;23.30;99.90;;;;;;5035879;28;20463;-63
2023/08/27 10:49:40;;;;;;;3.57;3.27;;;23.30;99.90;;;;;;5038707;28;20464;-61
2023/08/27 10:52:15;;;;;;;3.03;2.77;;;23.30;99.90;;;;;;5036051;28;20555;-65
2023/08/27 10:54:41;;;;;;;3.53;2.77;;;23.30;99.90;;;;;;5036853;28;20464;-60
2023/08/27 10:57:18;;;;;;;3.27;2.77;;;23.30;99.90;;;;;;5037703;28;20497;-61
2023/08/27 10:59:47;;;;;;;4.03;2.43;;;23.30;99.90;;;;;;5037676;28;20469;-62
2023/08/27 11:02:16;;;;;;;2.67;2.47;;;23.30;99.90;;;;;;5037228;28;20463;-65
2023/08/27 11:04:44;;;;;;;3.40;3.10;;;23.40;99.90;;;;;;5036299;28;20478;-72
2023/08/27 11:07:12;;;;;;;2.50;2.30;;;23.40;99.90;;;;;;5033368;28;20469;-64
2023/08/27 11:09:47;;;;;;;2.53;2.33;;;23.40;99.90;;;;;;5035375;28;20471;-69
2023/08/27 11:12:22;;;;;;;4.00;2.57;;;23.40;99.90;;;;;;5032934;28;20625;-56
2023/08/27 11:14:51;;;;;;;2.37;2.00;;;23.40;99.90;;;;;;5035187;28;20488;-56
2023/08/27 11:17:26;;;;;;;4.07;2.93;;;23.40;99.90;;;;;;5037350;28;20505;-58
2023/08/27 11:19:53;;;;;;;2.60;2.37;;;23.50;99.90;;;;;;5038391;28;20475;-63
2023/08/27 11:22:21;;;;;;;2.93;2.50;;;23.50;99.90;;;;;;5035204;28;20551;-63
2023/08/27 11:24:49;;;;;;;6.27;2.40;;;23.50;99.90;;;;;;5035582;28;21272;-66
2023/08/27 11:27:17;;;;;;;2.70;2.50;;;23.50;99.90;;;;;;5038863;28;20478;-64
2023/08/27 11:29:46;;;;;;;3.00;2.47;;;23.50;99.90;;;;;;5036707;28;20811;-57
2023/08/27 11:32:15;;;;;;;3.20;2.90;;;23.50;99.90;;;;;;5039346;28;20469;-57
2023/08/27 11:34:42;;;;;;;2.80;2.60;;;23.50;99.90;;;;;;5035715;28;20829;-61
2023/08/27 11:37:10;;;;;;;3.90;2.73;;;23.60;99.90;;;;;;5034028;28;20465;-58
2023/08/27 11:39:38;;;;;;;2.67;2.47;;;23.60;99.90;;;;;;5037492;28;20452;-54
2023/08/27 11:42:11;;;;;;;3.77;2.10;;;23.60;99.90;;;;;;5038804;28;20504;-56
2023/08/27 11:44:46;;;;;;;2.57;2.03;;;23.60;99.90;;;;;;5038570;28;20996;-59
2023/08/27 11:47:14;;;;;;;2.33;2.13;;;23.60;99.90;;;;;;5033655;28;22305;-54
2023/08/27 11:49:41;;;;;;;2.60;2.27;;;23.60;99.90;;;;;;5035311;28;20460;-51
2023/08/27 11:52:08;;;;;;;2.70;2.50;;;23.60;99.90;;;;;;5039097;28;21393;-54
2023/08/27 11:54:35;;;;;;;4.83;2.20;;;23.60;99.90;;;;;;5033994;28;20475;-56
2023/08/27 11:57:03;;;;;;;3.50;2.30;;;23.70;99.90;;;;;;5031525;28;20459;-66
2023/08/27 11:59:30;;;;;;;3.50;1.87;;;23.70;99.90;;;;;;5037914;28;20480;-54
2023/08/27 12:01:58;;;;;;;4.53;2.40;;;23.70;99.90;;;;;;5037014;28;20494;-64
2023/08/27 12:04:27;;;;;;;2.50;2.00;;;23.70;99.90;;;;;;5036754;28;20980;-65
2023/08/27 12:06:56;;;;;;;2.60;2.40;;;23.70;99.90;;;;;;5031784;28;20469;-56
2023/08/27 12:09:24;;;;;;;3.07;1.83;;;23.70;99.90;;;;;;5037694;28;20456;-56
2023/08/27 12:11:51;;;;;;;4.60;1.80;;;23.70;99.90;;;;;;5034596;28;20468;-52
2023/08/27 12:14:23;;;;;;;3.60;1.97;;;23.70;99.30;;;;;;5037928;28;20492;-57
2023/08/27 12:16:50;;;;;;;1.70;1.60;;;23.70;98.40;;;;;;5034705;28;21394;-63
2023/08/27 12:19:21;;;;;;;2.80;2.20;;;23.60;98.40;;;;;;5038003;28;20463;-56
2023/08/27 12:21:50;;;;;;;2.40;1.43;;;23.60;97.80;;;;;;5036587;28;20875;-56
2023/08/27 12:24:31;;;;;;;3.87;1.40;;;23.60;97.40;;;;;;5038152;28;20475;-57
2023/08/27 12:27:01;;;;;;;1.90;1.73;;;23.60;97.00;;;;;;5037006;28;20458;-56
2023/08/27 12:29:29;;;;;;;1.93;1.73;;;23.60;97.20;;;;;;5036449;28;20504;-55
2023/08/27 12:31:56;;;;;;;1.83;1.73;;;23.60;97.40;;;;;;5036454;28;20475;-60
2023/08/27 12:34:34;;;;;;;2.47;1.50;;;23.70;97.30;;;;;;5038794;28;20895;-63
2023/08/27 12:37:03;;;;;;;4.90;2.00;;;23.70;97.30;;;;;;5029988;28;20744;-54
2023/08/27 12:39:30;;;;;;;3.33;1.73;;;23.70;96.90;;;;;;5032073;28;21173;-58
2023/08/27 12:41:56;;;;;;;2.60;1.67;;;23.70;96.60;;;;;;5035675;28;20559;-65
2023/08/27 12:44:23;;;;;;;2.10;1.60;;;23.70;96.70;;;;;;5037852;28;20474;-62
2023/08/27 12:46:49;;;;;;;2.33;1.30;;;23.70;96.50;;;;;;5040671;28;20467;-62
2023/08/27 12:49:16;;;;;;;1.70;1.20;;;23.70;96.20;;;;;;5038979;28;20857;-60
2023/08/27 12:51:45;;;;;;;1.97;1.30;;;23.70;95.70;;;;;;5041716;28;20546;-64
2023/08/27 12:54:14;;;;;;;2.47;1.67;;;23.70;95.80;;;;;;5042132;28;20462;-61